PRM4211 CYYZ-KBOS
Flight info
| Callsign | PRM4211 |
|---|---|
| Flight time | N/A |
| Altitude | 35000 |
| Route | KEPTA3 BMPAH DCT AEVON DCT HANKK DCT PONCT JFUND2 |
| Aircraft | MD11/H-SDE1E2E3FGHIJ2J3J4J5M1RWXY/LB1D1 |
Departure
| Time | 2026-05-04 00:02 |
|---|---|
| Airport | Toronto Pearson International Airport (CYYZ) |
Arrival
| Time | N/A |
|---|---|
| Airport | Boston Logan International Airport (KBOS) |
| Time | Latitude | Longitude | Altitude | Speed | Heading |
|---|---|---|---|---|---|
| 2026-05-03 23:34 | 43.67940 | -79.63121 | 552 ft | 0 kts | 316° |
| 2026-05-03 23:44 | 43.67931 | -79.63110 | 552 ft | 2 kts | 320° |
| 2026-05-03 23:44 | 43.67920 | -79.63097 | 552 ft | 2 kts | 317° |
| 2026-05-03 23:45 | 43.67908 | -79.63085 | 552 ft | 2 kts | 341° |
| 2026-05-03 23:45 | 43.67893 | -79.63081 | 552 ft | 2 kts | 1° |
| 2026-05-03 23:45 | 43.67878 | -79.63085 | 552 ft | 2 kts | 22° |
| 2026-05-03 23:45 | 43.67866 | -79.63095 | 552 ft | 2 kts | 42° |
| 2026-05-03 23:46 | 43.67861 | -79.63102 | 552 ft | 1 kts | 47° |
| 2026-05-03 23:48 | 43.67863 | -79.63099 | 552 ft | 1 kts | 47° |
| 2026-05-03 23:48 | 43.67877 | -79.63078 | 552 ft | 4 kts | 47° |
| 2026-05-03 23:49 | 43.67902 | -79.63040 | 552 ft | 6 kts | 47° |
| 2026-05-03 23:49 | 43.67910 | -79.63028 | 552 ft | 0 kts | 46° |
| 2026-05-03 23:49 | 43.67916 | -79.63020 | 552 ft | 0 kts | 46° |
| 2026-05-03 23:49 | 43.67916 | -79.63019 | 552 ft | 0 kts | 46° |
| 2026-05-03 23:53 | 43.67921 | -79.63013 | 552 ft | 1 kts | 46° |
| 2026-05-03 23:54 | 43.67933 | -79.62995 | 552 ft | 3 kts | 46° |
| 2026-05-03 23:54 | 43.67956 | -79.62970 | 552 ft | 5 kts | 22° |
| 2026-05-03 23:54 | 43.68003 | -79.62982 | 552 ft | 9 kts | 332° |
| 2026-05-03 23:54 | 43.68057 | -79.63043 | 552 ft | 10 kts | 316° |
| 2026-05-03 23:55 | 43.68109 | -79.63111 | 552 ft | 10 kts | 317° |
| 2026-05-03 23:55 | 43.68165 | -79.63181 | 552 ft | 10 kts | 317° |
| 2026-05-03 23:55 | 43.68218 | -79.63249 | 553 ft | 9 kts | 317° |
| 2026-05-03 23:55 | 43.68265 | -79.63311 | 554 ft | 8 kts | 316° |
| 2026-05-03 23:56 | 43.68308 | -79.63365 | 555 ft | 7 kts | 316° |
| 2026-05-03 23:56 | 43.68347 | -79.63416 | 555 ft | 7 kts | 316° |
| 2026-05-03 23:56 | 43.68386 | -79.63470 | 555 ft | 8 kts | 315° |
| 2026-05-03 23:56 | 43.68427 | -79.63525 | 555 ft | 8 kts | 315° |
| 2026-05-03 23:57 | 43.68469 | -79.63583 | 555 ft | 8 kts | 315° |
| 2026-05-03 23:57 | 43.68514 | -79.63641 | 555 ft | 9 kts | 316° |
| 2026-05-03 23:57 | 43.68560 | -79.63702 | 555 ft | 9 kts | 316° |
| 2026-05-03 23:57 | 43.68608 | -79.63766 | 555 ft | 9 kts | 316° |
| 2026-05-03 23:58 | 43.68659 | -79.63832 | 555 ft | 10 kts | 316° |
| 2026-05-03 23:58 | 43.68724 | -79.63917 | 555 ft | 14 kts | 316° |
| 2026-05-03 23:58 | 43.68814 | -79.63968 | 555 ft | 15 kts | 26° |
| 2026-05-03 23:58 | 43.68886 | -79.63873 | 559 ft | 13 kts | 48° |
| 2026-05-03 23:59 | 43.68952 | -79.63770 | 559 ft | 15 kts | 47° |
| 2026-05-03 23:59 | 43.69026 | -79.63660 | 559 ft | 16 kts | 46° |
| 2026-05-03 23:59 | 43.69107 | -79.63547 | 559 ft | 17 kts | 45° |
| 2026-05-03 23:59 | 43.69200 | -79.63437 | 557 ft | 18 kts | 21° |
| 2026-05-04 00:00 | 43.69297 | -79.63418 | 557 ft | 10 kts | 359° |
| 2026-05-04 00:00 | 43.69305 | -79.63418 | 557 ft | 0 kts | 360° |
| 2026-05-04 00:00 | 43.69306 | -79.63418 | 557 ft | 0 kts | 359° |
| 2026-05-04 00:00 | 43.69318 | -79.63418 | 557 ft | 3 kts | 358° |
| 2026-05-04 00:01 | 43.69359 | -79.63435 | 557 ft | 10 kts | 330° |
| 2026-05-04 00:01 | 43.69387 | -79.63521 | 558 ft | 10 kts | 255° |
| 2026-05-04 00:01 | 43.69342 | -79.63609 | 559 ft | 21 kts | 227° |
| 2026-05-04 00:01 | 43.69070 | -79.64005 | 559 ft | 93 kts | 227° |
| 2026-05-04 00:02 | 43.68466 | -79.64897 | 553 ft | 160 kts | 226° |
| 2026-05-04 00:02 | 43.67621 | -79.66058 | 998 ft | 170 kts | 223° |
| 2026-05-04 00:02 | 43.66737 | -79.67110 | 1669 ft | 169 kts | 231° |
| 2026-05-04 00:02 | 43.66020 | -79.68308 | 2490 ft | 163 kts | 237° |
| 2026-05-04 00:03 | 43.65372 | -79.69541 | 3238 ft | 161 kts | 238° |
| 2026-05-04 00:03 | 43.64710 | -79.70808 | 3831 ft | 168 kts | 238° |
| 2026-05-04 00:03 | 43.63975 | -79.72216 | 3957 ft | 196 kts | 238° |
| 2026-05-04 00:03 | 43.63129 | -79.73859 | 4257 ft | 220 kts | 238° |
| 2026-05-04 00:04 | 43.62168 | -79.75544 | 4874 ft | 236 kts | 225° |
| 2026-05-04 00:04 | 43.60666 | -79.76633 | 5632 ft | 257 kts | 199° |
| 2026-05-04 00:04 | 43.58834 | -79.76613 | 6432 ft | 280 kts | 173° |
| 2026-05-04 00:04 | 43.57027 | -79.75465 | 6917 ft | 300 kts | 149° |
| 2026-05-04 00:05 | 43.55580 | -79.73311 | 6953 ft | 311 kts | 123° |
| 2026-05-04 00:05 | 43.54850 | -79.70481 | 6987 ft | 316 kts | 96° |
| 2026-05-04 00:05 | 43.54866 | -79.67496 | 7013 ft | 317 kts | 83° |
| 2026-05-04 00:05 | 43.54908 | -79.64435 | 6990 ft | 316 kts | 102° |
| 2026-05-04 00:06 | 43.54244 | -79.61578 | 7014 ft | 313 kts | 116° |
| 2026-05-04 00:06 | 43.53402 | -79.58810 | 7432 ft | 316 kts | 113° |
| 2026-05-04 00:06 | 43.52664 | -79.55950 | 8386 ft | 319 kts | 109° |
| 2026-05-04 00:06 | 43.52023 | -79.53031 | 9282 ft | 323 kts | 106° |
| 2026-05-04 00:07 | 43.51418 | -79.50050 | 10186 ft | 326 kts | 105° |
| 2026-05-04 00:07 | 43.50833 | -79.47080 | 11049 ft | 329 kts | 104° |
| 2026-05-04 00:07 | 43.50238 | -79.44038 | 11902 ft | 333 kts | 104° |
| 2026-05-04 00:07 | 43.49632 | -79.40932 | 12729 ft | 336 kts | 104° |
| 2026-05-04 00:08 | 43.49026 | -79.37826 | 13519 ft | 339 kts | 104° |
| 2026-05-04 00:08 | 43.48416 | -79.34711 | 14180 ft | 346 kts | 104° |
| 2026-05-04 00:08 | 43.47778 | -79.31420 | 14289 ft | 370 kts | 104° |
| 2026-05-04 00:08 | 43.47087 | -79.27898 | 14462 ft | 391 kts | 104° |
| 2026-05-04 00:09 | 43.46357 | -79.24157 | 14585 ft | 413 kts | 104° |
| 2026-05-04 00:09 | 43.45609 | -79.20290 | 14747 ft | 432 kts | 104° |
| 2026-05-04 00:09 | 43.44804 | -79.16173 | 15002 ft | 450 kts | 104° |
| 2026-05-04 00:09 | 43.43919 | -79.12003 | 15392 ft | 463 kts | 109° |
| 2026-05-04 00:10 | 43.42725 | -79.07891 | 16001 ft | 471 kts | 114° |
| 2026-05-04 00:10 | 43.41367 | -79.03743 | 16759 ft | 475 kts | 114° |
| 2026-05-04 00:10 | 43.40031 | -78.99616 | 17456 ft | 480 kts | 114° |
| 2026-05-04 00:10 | 43.38689 | -78.95376 | 18195 ft | 484 kts | 113° |
| 2026-05-04 00:11 | 43.37347 | -78.91085 | 18881 ft | 489 kts | 113° |
| 2026-05-04 00:11 | 43.35997 | -78.86755 | 19583 ft | 493 kts | 113° |
| 2026-05-04 00:11 | 43.34641 | -78.82413 | 20256 ft | 498 kts | 112° |
| 2026-05-04 00:11 | 43.33275 | -78.78000 | 20946 ft | 502 kts | 112° |
| 2026-05-04 00:12 | 43.31911 | -78.73593 | 21579 ft | 507 kts | 112° |
| 2026-05-04 00:12 | 43.30511 | -78.69168 | 22238 ft | 511 kts | 113° |
| 2026-05-04 00:12 | 43.29074 | -78.64673 | 22868 ft | 516 kts | 113° |
| 2026-05-04 00:12 | 43.27638 | -78.60162 | 23505 ft | 520 kts | 113° |
| 2026-05-04 00:13 | 43.26196 | -78.55616 | 24106 ft | 524 kts | 113° |
| 2026-05-04 00:13 | 43.24750 | -78.51043 | 24685 ft | 528 kts | 112° |
| 2026-05-04 00:13 | 43.23266 | -78.46345 | 25238 ft | 532 kts | 112° |
| 2026-05-04 00:13 | 43.21797 | -78.41691 | 25787 ft | 535 kts | 112° |
| 2026-05-04 00:14 | 43.20302 | -78.37056 | 26540 ft | 533 kts | 115° |
| 2026-05-04 00:14 | 43.18586 | -78.32579 | 27298 ft | 531 kts | 121° |
| 2026-05-04 00:14 | 43.16548 | -78.28321 | 27992 ft | 529 kts | 128° |
| 2026-05-04 00:14 | 43.14269 | -78.24456 | 28650 ft | 527 kts | 131° |
| 2026-05-04 00:15 | 43.11918 | -78.20660 | 29323 ft | 524 kts | 131° |
| 2026-05-04 00:15 | 43.09575 | -78.16844 | 29933 ft | 523 kts | 131° |
| 2026-05-04 00:15 | 43.07237 | -78.12999 | 30563 ft | 521 kts | 131° |
| 2026-05-04 00:15 | 43.04950 | -78.09206 | 31111 ft | 520 kts | 130° |
| 2026-05-04 00:16 | 43.02655 | -78.05394 | 31600 ft | 519 kts | 130° |
| 2026-05-04 00:16 | 43.00364 | -78.01583 | 32055 ft | 518 kts | 130° |
| 2026-05-04 00:16 | 42.98105 | -77.97823 | 32471 ft | 516 kts | 130° |
| 2026-05-04 00:16 | 42.95831 | -77.94036 | 32810 ft | 515 kts | 130° |
| 2026-05-04 00:17 | 42.93674 | -77.90138 | 33073 ft | 516 kts | 123° |
| 2026-05-04 00:17 | 42.91921 | -77.85875 | 33283 ft | 518 kts | 114° |
| 2026-05-04 00:17 | 42.90630 | -77.81289 | 33534 ft | 517 kts | 105° |
| 2026-05-04 00:17 | 42.89837 | -77.76592 | 33753 ft | 516 kts | 96° |
| 2026-05-04 00:18 | 42.89532 | -77.71725 | 33990 ft | 514 kts | 88° |
| 2026-05-04 00:18 | 42.89728 | -77.66873 | 34217 ft | 510 kts | 81° |
| 2026-05-04 00:18 | 42.90094 | -77.62115 | 34438 ft | 510 kts | 83° |
| 2026-05-04 00:18 | 42.90283 | -77.57268 | 34612 ft | 513 kts | 86° |
| 2026-05-04 00:19 | 42.90310 | -77.52378 | 34772 ft | 514 kts | 88° |
| 2026-05-04 00:19 | 42.90252 | -77.47527 | 34868 ft | 516 kts | 89° |
| 2026-05-04 00:19 | 42.90036 | -77.37769 | 34883 ft | 522 kts | 90° |
| 2026-05-04 00:20 | 42.89789 | -77.27797 | 34887 ft | 528 kts | 91° |
| 2026-05-04 00:20 | 42.89549 | -77.17799 | 34897 ft | 533 kts | 90° |
| 2026-05-04 00:21 | 42.89224 | -77.07677 | 34896 ft | 535 kts | 92° |
| 2026-05-04 00:21 | 42.88802 | -76.97598 | 34894 ft | 533 kts | 92° |
| 2026-05-04 00:22 | 42.88419 | -76.87543 | 34891 ft | 532 kts | 91° |
| 2026-05-04 00:22 | 42.88052 | -76.77480 | 34881 ft | 532 kts | 91° |
| 2026-05-04 00:23 | 42.87691 | -76.67382 | 34880 ft | 532 kts | 91° |
| 2026-05-04 00:23 | 42.87342 | -76.57411 | 34878 ft | 532 kts | 91° |
| 2026-05-04 00:24 | 42.87001 | -76.47382 | 34870 ft | 532 kts | 91° |
| 2026-05-04 00:24 | 42.86667 | -76.37328 | 34879 ft | 532 kts | 91° |
| 2026-05-04 00:25 | 42.86341 | -76.27260 | 34883 ft | 531 kts | 91° |
| 2026-05-04 00:25 | 42.86024 | -76.17202 | 34888 ft | 531 kts | 91° |
| 2026-05-04 00:26 | 42.85717 | -76.07177 | 34886 ft | 532 kts | 91° |
| 2026-05-04 00:26 | 42.85371 | -75.97128 | 34879 ft | 532 kts | 93° |
| 2026-05-04 00:27 | 42.84845 | -75.87099 | 34885 ft | 532 kts | 93° |
| 2026-05-04 00:27 | 42.84351 | -75.77069 | 34875 ft | 532 kts | 93° |
| 2026-05-04 00:28 | 42.83885 | -75.67094 | 34878 ft | 532 kts | 92° |
| 2026-05-04 00:28 | 42.83423 | -75.57009 | 34876 ft | 533 kts | 92° |
| 2026-05-04 00:29 | 42.82971 | -75.47000 | 34887 ft | 533 kts | 92° |
| 2026-05-04 00:29 | 42.82525 | -75.36927 | 34887 ft | 533 kts | 92° |